Time;durP1;ratioP1;P1;durP2;ratioP2;P2;SDS_P1;SDS_P2;PMS_P1;PMS_P2;Temp;Humidity;BMP_temperature;BMP_pressure;BME280_temperature;BME280_humidity;BME280_pressure;Samples;Min_cycle;Max_cycle;Signal;HPM_P1;HPM_P2
2021/07/05 00:00:49;;;;;;;9.30;4.47;;;16.60;99.90;;;;;;5079286;28;20522;-72
2021/07/05 00:03:15;;;;;;;10.68;5.20;;;16.70;99.90;;;;;;5077096;28;20489;-72
2021/07/05 00:05:40;;;;;;;9.75;4.43;;;16.70;99.90;;;;;;5077548;28;20036;-71
2021/07/05 00:08:06;;;;;;;8.30;3.97;;;16.70;99.90;;;;;;5076971;28;20052;-72
2021/07/05 00:10:32;;;;;;;10.15;5.00;;;16.80;99.90;;;;;;5077612;28;20067;-70
2021/07/05 00:12:58;;;;;;;9.95;4.85;;;16.80;99.90;;;;;;5077467;28;20102;-71
2021/07/05 00:15:31;;;;;;;7.93;3.50;;;16.80;99.90;;;;;;5061598;28;20032;-71
2021/07/05 00:18:02;;;;;;;9.68;4.70;;;16.80;99.90;;;;;;5077549;28;20036;-70
2021/07/05 00:20:29;;;;;;;7.72;4.45;;;16.70;99.90;;;;;;5080417;28;20078;-71
2021/07/05 00:22:56;;;;;;;10.35;4.55;;;16.70;99.90;;;;;;5059884;28;20048;-70
2021/07/05 00:25:23;;;;;;;8.80;4.30;;;16.50;99.90;;;;;;5074998;28;20479;-71
2021/07/05 00:27:48;;;;;;;12.75;4.75;;;16.40;99.90;;;;;;5060518;28;20035;-71
2021/07/05 00:30:16;;;;;;;9.40;3.40;;;16.40;99.90;;;;;;5077792;28;20028;-71
2021/07/05 00:32:43;;;;;;;7.72;4.20;;;16.40;99.90;;;;;;5079579;28;20074;-70
2021/07/05 00:45:16;;;;;;;4.15;2.35;;;16.30;99.90;;;;;;5076512;28;20047;-70
2021/07/05 00:51:04;;;;;;;4.20;2.50;;;16.30;99.90;;;;;;5073589;28;20040;-70
2021/07/05 00:53:31;;;;;;;5.07;3.13;;;16.30;99.90;;;;;;5062472;28;20048;-70
2021/07/05 01:06:03;;;;;;;5.97;2.90;;;16.20;99.90;;;;;;5073075;28;20051;-71
2021/07/05 01:08:28;;;;;;;7.10;3.40;;;16.20;99.90;;;;;;5080412;28;20037;-71
2021/07/05 01:10:55;;;;;;;5.38;3.63;;;16.20;99.90;;;;;;5076124;28;20810;-72
2021/07/05 01:13:21;;;;;;;6.38;3.35;;;16.20;99.90;;;;;;5060070;28;20063;-71
2021/07/05 01:15:46;;;;;;;9.10;3.40;;;16.20;99.90;;;;;;5077170;28;20420;-71
2021/07/05 01:18:12;;;;;;;6.18;3.50;;;16.20;99.90;;;;;;5078155;28;20051;-70
2021/07/05 01:20:39;;;;;;;7.07;3.67;;;16.20;99.90;;;;;;5079173;28;20036;-70
2021/07/05 01:23:08;;;;;;;5.05;3.22;;;16.20;99.90;;;;;;5076736;28;20032;-71
2021/07/05 01:25:35;;;;;;;8.40;4.32;;;16.20;99.90;;;;;;5079208;28;20032;-70
2021/07/05 01:28:01;;;;;;;8.82;4.32;;;16.20;99.90;;;;;;5076158;28;20102;-71
2021/07/05 01:30:27;;;;;;;6.75;4.20;;;16.20;99.90;;;;;;5080145;28;20726;-71
2021/07/05 01:33:00;;;;;;;6.45;3.58;;;16.20;99.90;;;;;;5057583;28;20111;-71
2021/07/05 01:35:26;;;;;;;7.10;3.53;;;16.10;99.90;;;;;;5072514;28;20078;-71
2021/07/05 01:37:53;;;;;;;6.35;3.70;;;16.20;99.90;;;;;;5079430;28;20032;-71
2021/07/05 01:40:19;;;;;;;7.35;4.00;;;16.10;99.90;;;;;;5058521;28;20488;-71
2021/07/05 01:42:51;;;;;;;7.38;3.78;;;16.10;99.90;;;;;;5061562;28;20043;-71
2021/07/05 01:45:19;;;;;;;7.93;3.67;;;16.10;99.90;;;;;;5083295;28;20128;-71
2021/07/05 01:47:45;;;;;;;7.00;3.92;;;16.10;99.90;;;;;;5081370;28;20038;-70
2021/07/05 01:50:11;;;;;;;7.78;3.78;;;16.10;99.90;;;;;;5079780;28;20123;-71
2021/07/05 01:52:37;;;;;;;8.18;4.22;;;16.10;99.90;;;;;;5079999;28;20045;-71
2021/07/05 01:55:04;;;;;;;11.45;3.95;;;16.10;99.90;;;;;;5083690;28;20040;-70
2021/07/05 01:57:33;;;;;;;7.78;4.30;;;16.10;99.90;;;;;;5062119;28;20059;-71
2021/07/05 02:00:00;;;;;;;8.70;3.25;;;16.20;99.90;;;;;;5083105;28;20036;-71
2021/07/05 02:02:26;;;;;;;8.02;2.90;;;16.20;99.90;;;;;;5080057;28;20499;-71
2021/07/05 02:04:52;;;;;;;6.50;2.65;;;16.20;99.90;;;;;;5083176;28;20071;-71
2021/07/05 02:07:18;;;;;;;6.53;2.60;;;16.10;99.90;;;;;;5079857;28;20056;-72
2021/07/05 02:09:44;;;;;;;11.98;2.55;;;16.00;99.90;;;;;;5064008;28;20047;-70
2021/07/05 02:12:11;;;;;;;7.78;2.05;;;16.00;99.90;;;;;;5080008;28;20028;-71
2021/07/05 02:14:38;;;;;;;6.50;1.98;;;16.00;99.90;;;;;;5077881;28;20032;-71
2021/07/05 02:17:04;;;;;;;7.68;2.00;;;16.00;99.90;;;;;;5079786;28;20036;-71
2021/07/05 02:19:30;;;;;;;7.30;1.80;;;16.00;99.90;;;;;;5082653;28;20471;-72
2021/07/05 02:21:55;;;;;;;10.05;3.00;;;16.00;99.90;;;;;;5079528;28;20060;-71
2021/07/05 02:24:21;;;;;;;8.48;2.03;;;15.90;99.90;;;;;;5064405;28;20040;-71
2021/07/05 02:26:46;;;;;;;7.25;1.85;;;15.90;99.90;;;;;;5080248;28;20044;-71
2021/07/05 02:29:12;;;;;;;11.05;2.30;;;15.90;99.90;;;;;;5081414;28;20116;-71
2021/07/05 02:31:38;;;;;;;9.82;2.53;;;15.90;99.90;;;;;;5081039;28;20042;-71
2021/07/05 02:34:05;;;;;;;15.95;2.03;;;15.90;99.90;;;;;;5079075;28;20055;-70
2021/07/05 02:36:30;;;;;;;8.25;2.08;;;15.90;99.90;;;;;;5079316;28;20029;-71
2021/07/05 02:38:56;;;;;;;11.68;2.00;;;15.90;99.90;;;;;;5081362;28;20495;-71
2021/07/05 02:41:22;;;;;;;9.80;2.00;;;15.90;99.90;;;;;;5062191;28;20045;-71
2021/07/05 02:43:47;;;;;;;8.50;1.88;;;15.80;99.90;;;;;;5063925;28;20028;-70
2021/07/05 02:46:14;;;;;;;9.90;2.20;;;15.80;99.90;;;;;;5063935;28;20415;-69
2021/07/05 02:48:41;;;;;;;10.82;2.08;;;15.80;99.90;;;;;;5080393;28;20123;-70
2021/07/05 02:51:08;;;;;;;9.25;1.88;;;15.70;99.90;;;;;;5061958;28;20048;-69
2021/07/05 02:53:35;;;;;;;6.10;2.08;;;15.70;99.90;;;;;;5080690;28;20118;-70
2021/07/05 02:56:04;;;;;;;6.53;1.98;;;15.60;99.90;;;;;;5079396;28;20123;-70
2021/07/05 02:58:31;;;;;;;9.68;2.10;;;15.60;99.90;;;;;;5081580;28;20057;-71
2021/07/05 03:00:59;;;;;;;7.80;2.22;;;15.60;99.90;;;;;;5079059;28;20025;-70
2021/07/05 03:03:25;;;;;;;8.75;1.75;;;15.60;99.90;;;;;;5081709;28;20492;-72
2021/07/05 03:05:51;;;;;;;12.15;2.22;;;15.50;99.90;;;;;;5078446;28;20040;-71
2021/07/05 03:08:17;;;;;;;7.25;1.75;;;15.50;99.90;;;;;;5081505;28;20028;-70
2021/07/05 03:10:43;;;;;;;9.77;1.73;;;15.40;99.90;;;;;;5079395;28;20068;-70
2021/07/05 03:13:13;;;;;;;10.88;1.90;;;15.40;99.90;;;;;;5080206;28;20028;-71
2021/07/05 03:15:39;;;;;;;11.93;2.22;;;15.40;99.90;;;;;;5079753;28;20047;-70
2021/07/05 03:18:06;;;;;;;5.78;1.38;;;15.30;99.90;;;;;;5061435;28;20036;-70
2021/07/05 03:20:35;;;;;;;8.35;1.80;;;15.30;99.90;;;;;;5080436;28;20111;-71
2021/07/05 03:23:02;;;;;;;7.53;2.08;;;15.30;99.90;;;;;;5079503;28;20024;-71
2021/07/05 03:25:31;;;;;;;10.75;1.90;;;15.20;99.90;;;;;;5062392;28;20043;-70
2021/07/05 03:27:57;;;;;;;9.18;1.80;;;15.20;99.90;;;;;;5078600;28;20461;-70
2021/07/05 03:30:24;;;;;;;7.60;1.77;;;15.20;99.90;;;;;;5057780;28;20024;-70
2021/07/05 03:32:52;;;;;;;6.25;1.70;;;15.10;99.90;;;;;;5081273;28;20412;-72
2021/07/05 03:35:19;;;;;;;8.90;1.77;;;15.10;99.90;;;;;;5081191;28;20036;-70
2021/07/05 03:37:46;;;;;;;7.38;2.17;;;15.10;99.90;;;;;;5059607;28;20041;-70
2021/07/05 03:40:15;;;;;;;7.75;2.42;;;15.10;99.90;;;;;;5076311;28;20080;-70
2021/07/05 03:42:41;;;;;;;12.15;2.17;;;15.10;99.90;;;;;;5044715;28;20042;-70
2021/07/05 03:45:08;;;;;;;7.50;1.65;;;15.10;99.90;;;;;;5061707;28;20036;-71
2021/07/05 03:47:35;;;;;;;6.72;1.77;;;15.10;99.90;;;;;;5079045;28;20507;-71
2021/07/05 03:50:02;;;;;;;12.57;2.33;;;15.10;99.90;;;;;;5079043;28;20029;-72
2021/07/05 03:52:27;;;;;;;11.50;2.50;;;15.00;99.90;;;;;;5061890;28;20119;-70
2021/07/05 03:54:53;;;;;;;8.23;2.25;;;15.10;99.90;;;;;;5077897;28;20496;-70
2021/07/05 03:57:22;;;;;;;7.60;2.30;;;15.10;99.90;;;;;;5081241;28;20028;-70
2021/07/05 03:59:56;;;;;;;10.07;2.60;;;15.00;99.90;;;;;;5073175;28;20195;-70
2021/07/05 04:02:22;;;;;;;8.30;2.38;;;15.10;99.90;;;;;;5074055;28;20101;-70
2021/07/05 04:04:48;;;;;;;7.00;2.45;;;15.00;99.90;;;;;;5080575;28;20021;-70
2021/07/05 04:07:14;;;;;;;8.65;2.22;;;15.10;99.90;;;;;;5079863;28;20032;-70
2021/07/05 04:09:41;;;;;;;16.02;2.88;;;15.10;99.90;;;;;;5077472;28;20032;-70
2021/07/05 04:12:11;;;;;;;8.50;2.47;;;15.00;99.90;;;;;;5079399;28;20035;-70
2021/07/05 04:14:37;;;;;;;10.68;2.53;;;15.10;99.90;;;;;;5077621;28;20520;-70
2021/07/05 04:17:02;;;;;;;8.88;2.33;;;15.00;99.90;;;;;;5059312;28;20395;-70
2021/07/05 04:19:28;;;;;;;10.98;2.47;;;15.10;99.90;;;;;;5077839;28;20033;-70
2021/07/05 04:21:54;;;;;;;9.98;2.15;;;15.10;99.90;;;;;;5080364;28;20032;-70
2021/07/05 04:24:19;;;;;;;11.02;2.78;;;15.10;99.90;;;;;;5077122;28;20514;-71
2021/07/05 04:26:45;;;;;;;9.90;2.80;;;15.10;99.90;;;;;;5072296;28;20043;-71
2021/07/05 04:29:11;;;;;;;13.10;2.45;;;15.00;99.90;;;;;;5079733;28;20422;-70
2021/07/05 04:31:36;;;;;;;13.23;2.45;;;15.00;99.90;;;;;;5054251;28;20108;-70
2021/07/05 04:34:02;;;;;;;6.22;2.60;;;15.00;99.90;;;;;;5068281;28;20036;-71
2021/07/05 04:36:28;;;;;;;5.88;2.72;;;15.00;99.90;;;;;;5072183;28;20493;-71
2021/07/05 04:38:53;;;;;;;14.70;2.78;;;15.00;99.90;;;;;;5053797;28;20021;-71
2021/07/05 04:41:19;;;;;;;10.63;2.33;;;14.90;99.90;;;;;;5067130;28;20555;-71
2021/07/05 04:43:45;;;;;;;12.90;2.72;;;14.90;99.90;;;;;;5072069;28;20514;-71
2021/07/05 04:46:10;;;;;;;7.93;2.25;;;14.90;99.90;;;;;;5051731;28;20029;-71
2021/07/05 04:48:36;;;;;;;9.20;2.50;;;14.90;99.90;;;;;;5070519;28;20554;-70
2021/07/05 04:51:04;;;;;;;10.85;2.30;;;14.90;99.90;;;;;;5051937;28;20031;-70
2021/07/05 04:53:30;;;;;;;4.72;2.22;;;14.90;99.90;;;;;;5069493;28;20032;-71
2021/07/05 04:55:58;;;;;;;9.13;2.50;;;14.90;99.90;;;;;;5055065;28;20040;-71
2021/07/05 04:58:23;;;;;;;9.60;2.80;;;14.90;99.90;;;;;;5069851;28;20040;-70
2021/07/05 05:00:49;;;;;;;8.05;2.45;;;15.00;99.90;;;;;;5067084;28;20051;-70
2021/07/05 05:03:15;;;;;;;8.20;2.28;;;15.00;99.90;;;;;;5047273;28;20068;-71
2021/07/05 05:05:41;;;;;;;8.23;2.20;;;15.00;99.90;;;;;;5069635;28;20435;-71
2021/07/05 05:08:08;;;;;;;11.23;2.30;;;15.00;99.90;;;;;;5068258;28;20123;-70
2021/07/05 05:10:34;;;;;;;5.65;2.03;;;15.00;99.90;;;;;;5062555;28;20029;-70
2021/07/05 05:13:00;;;;;;;11.00;3.13;;;15.00;99.90;;;;;;5044366;28;20064;-71
2021/07/05 05:15:26;;;;;;;8.77;2.30;;;15.00;99.90;;;;;;5065350;28;20058;-71
2021/07/05 05:17:52;;;;;;;9.48;2.97;;;15.10;99.90;;;;;;5053521;28;20115;-70
2021/07/05 05:20:19;;;;;;;10.82;2.50;;;15.10;99.90;;;;;;5069870;28;20162;-70
2021/07/05 05:22:45;;;;;;;7.20;2.25;;;15.10;99.90;;;;;;5068905;28;20036;-71
2021/07/05 05:25:11;;;;;;;7.28;2.47;;;15.10;99.90;;;;;;5058958;28;20166;-71
2021/07/05 05:27:37;;;;;;;6.65;2.15;;;15.10;99.90;;;;;;5071019;28;20048;-71
2021/07/05 05:30:07;;;;;;;8.98;2.85;;;15.20;99.90;;;;;;5071432;28;20060;-70
2021/07/05 05:32:34;;;;;;;6.95;1.92;;;15.20;99.90;;;;;;5074570;28;20029;-71
2021/07/05 05:34:59;;;;;;;8.60;2.20;;;15.10;99.90;;;;;;5054755;28;20028;-70
2021/07/05 05:37:25;;;;;;;7.40;2.10;;;15.10;99.90;;;;;;5071755;28;20035;-71
2021/07/05 05:39:51;;;;;;;9.48;3.63;;;15.10;99.90;;;;;;5071875;28;20059;-71
2021/07/05 05:42:16;;;;;;;8.90;2.40;;;15.20;99.90;;;;;;5071266;28;20115;-71
2021/07/05 05:44:45;;;;;;;14.30;2.30;;;15.20;99.90;;;;;;5070685;28;20044;-71
2021/07/05 05:47:11;;;;;;;7.95;2.45;;;15.10;99.90;;;;;;5072520;28;20060;-71
2021/07/05 05:49:38;;;;;;;6.00;2.35;;;15.00;99.90;;;;;;5072241;28;20032;-71
2021/07/05 05:52:04;;;;;;;9.63;2.25;;;15.10;99.90;;;;;;5070688;28;20110;-71
2021/07/05 05:54:29;;;;;;;12.85;2.67;;;15.10;99.90;;;;;;5070158;28;20493;-72
2021/07/05 05:56:55;;;;;;;5.75;2.13;;;15.00;99.90;;;;;;5074453;28;20146;-72
2021/07/05 05:59:21;;;;;;;8.05;2.72;;;15.00;99.90;;;;;;5073245;28;20102;-71
2021/07/05 06:01:50;;;;;;;9.85;2.67;;;15.00;99.90;;;;;;5069475;28;20098;-71
2021/07/05 06:04:20;;;;;;;5.53;2.20;;;15.00;99.90;;;;;;5068781;28;20059;-72
2021/07/05 06:06:46;;;;;;;;;;;15.10;99.90;;;;;;5059123;28;20115;-71
2021/07/05 06:09:12;;;;;;;15.07;3.03;;;15.10;99.90;;;;;;5071636;28;20006;-71
2021/07/05 06:11:38;;;;;;;6.55;2.55;;;15.20;99.90;;;;;;5055771;28;20162;-71
2021/07/05 06:14:05;;;;;;;9.35;2.47;;;15.20;99.90;;;;;;5071265;28;20059;-71
2021/07/05 06:16:32;;;;;;;8.98;2.70;;;15.20;99.90;;;;;;5070987;28;20051;-71
2021/07/05 06:18:59;;;;;;;10.55;3.08;;;15.30;99.90;;;;;;5059472;28;20041;-71
2021/07/05 06:21:26;;;;;;;8.32;2.70;;;15.40;99.90;;;;;;5071464;28;20033;-71
2021/07/05 06:23:56;;;;;;;12.57;3.00;;;15.50;99.90;;;;;;5054545;28;20039;-72
2021/07/05 06:26:22;;;;;;;13.90;2.83;;;15.70;99.90;;;;;;5038395;28;20039;-71
2021/07/05 06:28:48;;;;;;;11.43;2.90;;;16.10;99.90;;;;;;5056864;28;20408;-73
2021/07/05 06:31:14;;;;;;;12.10;3.03;;;16.40;99.90;;;;;;5057711;28;20545;-72
2021/07/05 06:33:39;;;;;;;11.00;3.05;;;16.90;99.90;;;;;;5071851;28;20036;-72
2021/07/05 06:36:05;;;;;;;10.75;2.75;;;17.40;99.90;;;;;;5073611;28;20052;-72
2021/07/05 06:38:32;;;;;;;11.73;2.90;;;17.90;99.90;;;;;;5072472;28;20040;-72
2021/07/05 06:40:58;;;;;;;8.77;2.63;;;18.30;99.90;;;;;;5071429;28;20029;-72
2021/07/05 06:43:24;;;;;;;10.48;2.70;;;18.50;99.90;;;;;;5058835;28;20044;-72
2021/07/05 06:45:49;;;;;;;10.65;1.98;;;18.60;99.90;;;;;;5062868;28;20037;-72
2021/07/05 06:48:17;;;;;;;12.95;2.47;;;18.50;99.90;;;;;;5072402;28;20051;-72
2021/07/05 06:50:43;;;;;;;11.27;2.63;;;18.50;99.90;;;;;;5073170;28;20083;-74
2021/07/05 06:53:09;;;;;;;13.25;2.33;;;18.30;99.90;;;;;;5069112;28;20582;-72
2021/07/05 06:55:36;;;;;;;8.50;3.00;;;18.20;99.90;;;;;;5073982;28;20032;-73
2021/07/05 06:58:02;;;;;;;6.75;2.22;;;18.60;99.90;;;;;;5054167;28;20583;-72
2021/07/05 07:00:29;;;;;;;6.47;1.98;;;19.30;99.90;;;;;;5069382;28;20040;-73
2021/07/05 07:02:56;;;;;;;6.18;2.25;;;19.70;99.90;;;;;;5073316;28;20052;-74
2021/07/05 07:05:23;;;;;;;7.78;1.85;;;19.70;99.90;;;;;;5055875;28;20033;-73
2021/07/05 07:07:53;;;;;;;7.07;2.92;;;19.60;99.90;;;;;;5075581;28;20040;-74
2021/07/05 07:10:20;;;;;;;7.22;1.70;;;19.50;99.90;;;;;;5070455;28;20064;-73
2021/07/05 07:12:49;;;;;;;5.97;1.50;;;19.30;99.90;;;;;;5072660;28;20036;-72
2021/07/05 07:15:19;;;;;;;5.32;1.95;;;19.30;99.90;;;;;;5067525;28;20036;-73
2021/07/05 07:17:50;;;;;;;8.90;3.00;;;19.10;99.90;;;;;;5072943;28;20064;-73
2021/07/05 07:20:16;;;;;;;10.50;2.67;;;19.00;99.90;;;;;;5049980;28;20087;-72
2021/07/05 07:22:42;;;;;;;9.35;2.00;;;18.80;99.90;;;;;;5066403;28;20082;-72
2021/07/05 07:25:11;;;;;;;8.57;2.10;;;19.50;99.90;;;;;;5068553;28;20036;-73
2021/07/05 07:27:37;;;;;;;13.95;2.03;;;20.50;99.90;;;;;;5053953;28;20090;-73
2021/07/05 07:30:07;;;;;;;9.57;1.60;;;20.80;99.90;;;;;;5070461;28;20443;-73
2021/07/05 07:32:33;;;;;;;5.32;1.35;;;20.70;99.90;;;;;;5072671;28;20040;-72
2021/07/05 07:34:59;;;;;;;6.18;1.90;;;20.30;99.90;;;;;;5070106;28;20091;-73
2021/07/05 07:37:25;;;;;;;10.98;1.83;;;20.00;99.90;;;;;;5067779;28;20036;-73
2021/07/05 07:42:49;;;;;;;10.43;1.50;;;19.20;99.90;;;;;;5027904;28;20078;-72
2021/07/05 07:45:16;;;;;;;7.68;1.88;;;19.00;99.90;;;;;;5064285;28;20055;-73
2021/07/05 07:47:42;;;;;;;7.05;1.73;;;19.10;99.90;;;;;;5064255;28;20485;-73
2021/07/05 07:50:09;;;;;;;7.28;2.10;;;19.40;99.90;;;;;;5068629;28;20154;-72
2021/07/05 07:52:37;;;;;;;8.25;1.63;;;20.00;99.90;;;;;;5067097;28;20488;-72
2021/07/05 07:55:04;;;;;;;7.28;1.77;;;20.60;99.90;;;;;;5050764;28;20038;-74
2021/07/05 07:57:29;;;;;;;8.05;1.60;;;20.70;99.90;;;;;;5050805;28;20065;-72
2021/07/05 07:59:55;;;;;;;10.27;1.30;;;20.60;99.90;;;;;;5067527;28;20055;-72
2021/07/05 08:02:21;;;;;;;7.88;1.63;;;20.10;99.90;;;;;;5070939;28;20039;-73
2021/07/05 08:04:46;;;;;;;8.57;1.70;;;20.00;99.90;;;;;;5070728;28;20039;-74
2021/07/05 08:07:12;;;;;;;7.45;1.63;;;20.00;99.90;;;;;;5046241;28;20028;-72
2021/07/05 08:09:39;;;;;;;11.50;2.10;;;20.10;99.90;;;;;;5069787;28;20035;-72
2021/07/05 08:12:07;;;;;;;7.90;2.10;;;20.10;99.90;;;;;;5049882;28;20041;-72
2021/07/05 08:14:33;;;;;;;10.43;1.58;;;19.90;99.90;;;;;;5070183;28;20036;-74
2021/07/05 08:16:58;;;;;;;7.05;1.88;;;19.80;99.90;;;;;;5055584;28;20117;-73
2021/07/05 08:19:24;;;;;;;9.98;2.17;;;19.80;99.90;;;;;;5070633;28;20037;-73
2021/07/05 08:21:49;;;;;;;5.70;1.83;;;19.90;99.90;;;;;;5070571;28;20032;-72
2021/07/05 08:24:15;;;;;;;9.15;2.58;;;19.80;99.90;;;;;;5049791;28;20485;-74
2021/07/05 08:26:41;;;;;;;6.32;2.40;;;19.80;99.90;;;;;;5051120;28;20054;-72
2021/07/05 08:29:07;;;;;;;4.65;1.80;;;19.80;99.90;;;;;;5052069;28;20037;-73
2021/07/05 08:31:32;;;;;;;6.78;2.17;;;19.80;99.90;;;;;;5071666;28;20021;-73
2021/07/05 08:34:00;;;;;;;6.53;1.60;;;20.20;99.90;;;;;;5050724;28;20028;-73
2021/07/05 08:36:26;;;;;;;8.10;2.10;;;20.70;99.90;;;;;;5072801;28;20039;-72
2021/07/05 08:38:52;;;;;;;5.90;2.20;;;21.80;99.90;;;;;;5067076;28;20028;-73
2021/07/05 08:41:18;;;;;;;5.97;1.95;;;22.50;99.90;;;;;;5070317;28;20174;-72
2021/07/05 08:43:47;;;;;;;6.07;2.28;;;23.10;99.90;;;;;;5068643;28;20040;-72
2021/07/05 08:46:17;;;;;;;6.93;1.80;;;23.20;99.90;;;;;;5053527;28;20163;-74
2021/07/05 08:48:44;;;;;;;9.90;1.70;;;23.50;99.90;;;;;;5048434;28;20040;-74
2021/07/05 08:51:20;;;;;;;5.05;2.03;;;23.60;99.90;;;;;;5060474;28;20031;-73
2021/07/05 08:53:48;;;;;;;8.18;2.25;;;23.50;99.90;;;;;;5066177;28;20036;-73
2021/07/05 08:56:15;;;;;;;6.38;2.00;;;23.20;99.90;;;;;;5051426;28;20078;-73
2021/07/05 08:58:42;;;;;;;5.85;1.73;;;23.00;99.90;;;;;;5069749;28;20377;-71
2021/07/05 09:01:10;;;;;;;10.43;2.10;;;22.70;99.90;;;;;;5070552;28;20098;-72
2021/07/05 09:03:36;;;;;;;8.45;2.00;;;22.70;99.90;;;;;;5065525;28;20048;-72
2021/07/05 09:06:18;;;;;;;3.33;1.77;;;22.90;99.90;;;;;;5069272;28;20028;-71
2021/07/05 09:08:59;;;;;;;4.28;2.25;;;23.00;99.90;;;;;;5067843;28;20468;-73
2021/07/05 09:11:38;;;;;;;5.00;2.13;;;22.80;99.90;;;;;;5050047;28;20445;-71
2021/07/05 09:14:11;;;;;;;4.50;1.65;;;22.90;99.90;;;;;;5070135;28;20032;-73
2021/07/05 09:16:38;;;;;;;7.18;2.58;;;23.00;99.90;;;;;;5047232;28;20025;-72
2021/07/05 09:19:25;;;;;;;7.85;2.05;;;23.20;99.90;;;;;;5068354;28;20040;-73
2021/07/05 09:21:59;;;;;;;4.15;1.60;;;23.50;99.90;;;;;;5068077;28;20028;-73
2021/07/05 09:24:28;;;;;;;5.80;1.40;;;23.60;99.90;;;;;;5051605;28;20084;-73
2021/07/05 09:27:33;;;;;;;6.57;1.50;;;23.60;99.90;;;;;;5048134;28;20063;-74
2021/07/05 09:30:10;;;;;;;3.92;1.90;;;23.50;99.90;;;;;;5002815;28;20033;-73
2021/07/05 09:32:36;;;;;;;3.50;1.30;;;23.40;99.90;;;;;;5057508;28;20040;-73
2021/07/05 09:35:13;;;;;;;5.75;1.75;;;23.20;99.90;;;;;;5049218;28;20029;-72
2021/07/05 09:37:52;;;;;;;5.45;1.98;;;23.30;99.90;;;;;;5065496;28;20128;-72
2021/07/05 09:40:17;;;;;;;5.65;1.38;;;23.20;99.90;;;;;;5068087;28;20558;-72
2021/07/05 09:42:46;;;;;;;9.63;1.67;;;23.30;99.90;;;;;;5068034;28;20060;-72
2021/07/05 09:45:14;;;;;;;4.40;1.75;;;23.40;99.90;;;;;;5047566;28;20040;-72
2021/07/05 09:47:40;;;;;;;3.88;1.40;;;23.20;99.90;;;;;;5069924;28;20178;-72
2021/07/05 09:50:16;;;;;;;4.80;1.60;;;23.10;99.90;;;;;;5067342;28;20036;-71
2021/07/05 09:52:43;;;;;;;5.10;1.92;;;23.30;99.90;;;;;;5061440;28;20052;-72
2021/07/05 09:55:13;;;;;;;4.75;1.75;;;23.20;99.90;;;;;;5068271;28;20112;-73
2021/07/05 09:57:52;;;;;;;3.97;1.42;;;23.10;99.90;;;;;;5067962;28;20548;-72
2021/07/05 10:00:18;;;;;;;4.93;1.55;;;23.20;99.90;;;;;;5048158;28;20443;-73
2021/07/05 10:03:08;;;;;;;3.28;1.90;;;23.10;99.90;;;;;;5067506;28;20029;-71
2021/07/05 10:05:43;;;;;;;3.55;1.45;;;23.50;99.90;;;;;;5068800;28;20400;-73
2021/07/05 10:08:15;;;;;;;4.60;1.95;;;24.10;99.90;;;;;;5051275;28;20067;-73
2021/07/05 10:10:43;;;;;;;6.57;1.55;;;24.30;99.90;;;;;;5071079;28;20036;-72
2021/07/05 10:13:12;;;;;;;4.97;1.10;;;24.20;99.90;;;;;;5058632;28;20087;-71
2021/07/05 10:15:38;;;;;;;4.35;1.45;;;24.20;99.90;;;;;;5076701;28;20068;-70
2021/07/05 10:18:05;;;;;;;2.88;1.38;;;24.00;99.90;;;;;;5069356;28;20032;-73
2021/07/05 10:20:32;;;;;;;6.50;1.67;;;23.90;99.90;;;;;;5059656;28;20036;-73
2021/07/05 10:23:02;;;;;;;1.63;1.02;;;23.60;99.90;;;;;;5061130;28;20035;-71
2021/07/05 10:25:31;;;;;;;3.38;1.52;;;23.40;99.90;;;;;;5052800;28;20032;-73
2021/07/05 10:27:57;;;;;;;4.75;1.20;;;23.30;99.90;;;;;;5061004;28;20182;-73
2021/07/05 10:30:24;;;;;;;4.78;1.70;;;23.20;99.90;;;;;;5076248;28;20031;-72
2021/07/05 10:32:50;;;;;;;5.47;1.77;;;23.20;99.90;;;;;;5087121;28;20040;-73
2021/07/05 10:35:19;;;;;;;5.03;1.73;;;23.20;99.90;;;;;;5061102;28;20189;-73
2021/07/05 10:37:50;;;;;;;2.95;1.35;;;23.00;99.90;;;;;;5081155;28;20037;-73
2021/07/05 10:40:17;;;;;;;4.10;1.58;;;23.10;99.90;;;;;;5080648;28;20547;-73
2021/07/05 10:42:53;;;;;;;4.32;1.55;;;22.90;99.90;;;;;;5078684;28;20122;-72
2021/07/05 10:45:19;;;;;;;11.60;1.98;;;22.80;99.90;;;;;;5081225;28;20036;-73
2021/07/05 10:47:54;;;;;;;9.27;2.67;;;22.90;99.90;;;;;;5079577;28;20078;-72
2021/07/05 10:50:41;;;;;;;5.88;1.58;;;22.80;99.90;;;;;;5081575;28;20028;-72
2021/07/05 10:53:07;;;;;;;4.65;1.63;;;22.80;99.90;;;;;;5054196;28;20103;-73
2021/07/05 10:56:00;;;;;;;3.17;1.40;;;22.80;99.90;;;;;;5079340;28;20036;-72
2021/07/05 10:58:26;;;;;;;5.80;2.20;;;22.80;99.90;;;;;;5064772;28;20045;-71
2021/07/05 11:00:57;;;;;;;5.78;1.33;;;22.70;99.90;;;;;;5071626;28;20036;-72
2021/07/05 11:03:38;;;;;;;6.50;1.20;;;22.70;99.90;;;;;;5065128;28;20037;-73
2021/07/05 11:06:09;;;;;;;7.50;1.65;;;22.90;99.90;;;;;;5053251;28;20867;-73
2021/07/05 11:08:44;;;;;;;6.78;1.25;;;23.10;99.90;;;;;;5070094;28;20033;-72
2021/07/05 11:11:26;;;;;;;3.50;1.65;;;23.20;99.90;;;;;;5063543;28;20060;-71
2021/07/05 11:14:13;;;;;;;6.85;1.10;;;22.90;99.90;;;;;;5067331;28;20040;-72
2021/07/05 11:16:51;;;;;;;6.65;1.35;;;22.70;99.90;;;;;;5072129;28;20043;-72
2021/07/05 11:19:47;;;;;;;3.83;1.10;;;22.50;99.90;;;;;;5071333;28;20040;-72
2021/07/05 11:22:20;;;;;;;9.10;1.65;;;22.40;99.90;;;;;;5072331;28;20025;-73
2021/07/05 11:24:50;;;;;;;7.00;1.35;;;22.50;99.90;;;;;;5074754;28;20044;-72
2021/07/05 11:27:27;;;;;;;3.83;1.38;;;22.20;99.90;;;;;;5059255;28;20071;-72
2021/07/05 11:29:53;;;;;;;8.60;1.48;;;22.10;99.90;;;;;;5068067;28;20040;-72
2021/07/05 11:32:41;;;;;;;6.43;1.50;;;21.80;99.90;;;;;;5070438;28;20481;-73
2021/07/05 11:35:27;;;;;;;9.90;1.70;;;21.70;99.90;;;;;;5069554;28;20036;-73
2021/07/05 11:37:54;;;;;;;5.18;1.30;;;21.70;99.90;;;;;;5053203;28;20024;-73
2021/07/05 11:40:43;;;;;;;6.45;2.20;;;21.60;99.90;;;;;;5070192;28;20037;-72
2021/07/05 11:43:10;;;;;;;4.70;1.20;;;21.50;99.90;;;;;;5064943;28;20043;-72
2021/07/05 11:45:50;;;;;;;4.57;1.30;;;21.40;99.90;;;;;;5069146;28;20608;-72
2021/07/05 11:48:40;;;;;;;3.30;1.30;;;21.50;99.90;;;;;;5060258;28;20361;-73
2021/07/05 11:51:37;;;;;;;4.22;1.10;;;21.50;99.90;;;;;;5071423;28;20032;-73
2021/07/05 11:54:13;;;;;;;4.55;1.50;;;21.40;99.90;;;;;;5069881;28;20488;-73
2021/07/05 11:56:47;;;;;;;6.28;1.73;;;21.50;99.90;;;;;;5070899;28;20132;-73
2021/07/05 11:59:24;;;;;;;4.35;1.60;;;21.60;99.90;;;;;;5053932;28;20588;-72
2021/07/05 12:02:04;;;;;;;5.00;1.40;;;21.60;99.90;;;;;;5051073;28;20552;-72
2021/07/05 12:04:34;;;;;;;4.20;1.27;;;21.40;99.90;;;;;;5068217;28;20056;-71
2021/07/05 12:07:02;;;;;;;3.40;1.23;;;21.20;99.90;;;;;;5052175;28;20040;-74
2021/07/05 12:09:30;;;;;;;3.88;1.15;;;20.70;99.90;;;;;;5067275;28;20041;-72
2021/07/05 12:11:56;;;;;;;3.53;1.20;;;20.30;99.90;;;;;;5056435;28;20060;-72
2021/07/05 12:14:25;;;;;;;4.47;1.60;;;20.20;99.90;;;;;;5070895;28;20035;-72
2021/07/05 12:16:57;;;;;;;4.32;1.10;;;20.00;99.90;;;;;;5052370;28;20033;-72
2021/07/05 12:19:24;;;;;;;2.78;1.10;;;19.80;99.90;;;;;;5067493;28;20507;-71
2021/07/05 12:21:59;;;;;;;6.22;1.50;;;19.80;99.90;;;;;;5051730;28;20110;-73
2021/07/05 12:24:27;;;;;;;2.58;1.27;;;19.80;99.90;;;;;;5071732;28;20108;-73
2021/07/05 12:26:56;;;;;;;2.63;1.40;;;20.00;99.90;;;;;;5069391;28;20033;-71
2021/07/05 12:29:30;;;;;;;6.00;1.08;;;20.00;99.90;;;;;;5069468;28;20435;-72
2021/07/05 12:32:12;;;;;;;3.08;1.15;;;20.10;99.90;;;;;;5065644;28;20036;-73
2021/07/05 12:34:42;;;;;;;4.55;1.10;;;20.30;99.90;;;;;;5057719;28;20477;-73
2021/07/05 12:37:13;;;;;;;3.08;1.67;;;20.40;99.90;;;;;;5069543;28;20036;-71
2021/07/05 12:40:00;;;;;;;2.80;1.13;;;20.40;99.90;;;;;;5059426;28;20029;-71
2021/07/05 12:42:31;;;;;;;1.52;0.60;;;20.30;99.90;;;;;;5066094;28;20040;-73
2021/07/05 12:44:58;;;;;;;2.50;0.68;;;20.40;99.90;;;;;;5075854;28;20039;-70
2021/07/05 12:47:24;;;;;;;1.60;0.40;;;20.40;99.90;;;;;;5054771;28;20028;-71
2021/07/05 12:49:51;;;;;;;1.05;0.50;;;20.70;99.90;;;;;;5055778;28;20059;-72
2021/07/05 12:52:17;;;;;;;3.17;0.50;;;21.00;99.90;;;;;;5059692;28;20059;-74
2021/07/05 12:54:43;;;;;;;1.00;0.40;;;21.30;99.90;;;;;;5070808;28;20422;-70
2021/07/05 12:57:15;;;;;;;1.85;0.68;;;21.30;99.90;;;;;;5070212;28;20060;-71
2021/07/05 12:59:44;;;;;;;1.65;0.55;;;21.40;99.90;;;;;;5058161;28;20028;-73
2021/07/05 13:02:29;;;;;;;3.88;0.55;;;21.70;99.90;;;;;;5053739;28;20029;-71
2021/07/05 13:05:16;;;;;;;2.08;0.70;;;21.70;99.90;;;;;;5055327;28;20140;-71
2021/07/05 13:07:57;;;;;;;2.40;0.60;;;21.70;99.90;;;;;;5056677;28;20045;-71
2021/07/05 13:10:36;;;;;;;2.45;0.70;;;21.60;99.90;;;;;;5068762;28;20029;-72
2021/07/05 13:13:05;;;;;;;5.75;0.93;;;21.10;99.90;;;;;;5069851;28;20036;-72
2021/07/05 13:15:34;;;;;;;1.45;0.80;;;20.80;99.90;;;;;;5068791;28;20033;-72
2021/07/05 13:18:15;;;;;;;4.10;1.10;;;20.50;99.90;;;;;;5069153;28;20033;-72
2021/07/05 13:20:41;;;;;;;3.90;0.98;;;20.30;99.90;;;;;;5055845;28;20036;-72